createdAt,value
2019-03-12T17:05:32.771Z,23.57
2019-03-12T17:08:04.422Z,37.07
2019-03-12T17:10:36.263Z,28.80
2019-03-12T17:13:07.875Z,26.65
2019-03-12T17:15:39.595Z,34.92
2019-03-12T17:18:11.592Z,35.63
2019-03-12T17:20:43.359Z,40.23
2019-03-12T17:23:15.207Z,29.57
2019-03-12T17:25:47.026Z,34.60
2019-03-12T17:28:19.478Z,38.35
2019-03-12T17:30:51.330Z,26.40
2019-03-12T17:33:23.046Z,24.35
2019-03-12T17:35:55.134Z,29.05
2019-03-12T17:38:26.952Z,24.60
2019-03-12T17:40:58.898Z,30.65
2019-03-12T17:43:30.707Z,26.93
2019-03-12T17:46:02.325Z,27.58
2019-03-12T17:48:33.941Z,31.20
2019-03-12T17:51:06.096Z,24.95
2019-03-12T17:53:37.445Z,28.05
2019-03-12T17:56:09.262Z,27.30
2019-03-12T17:58:41.416Z,24.37
2019-03-12T18:01:13.297Z,39.35
2019-03-12T18:03:46.426Z,42.85
2019-03-12T18:06:18.245Z,27.35
2019-03-12T18:08:49.800Z,28.85
2019-03-12T18:11:21.611Z,24.67
2019-03-12T18:13:53.989Z,31.02
2019-03-12T18:16:25.727Z,35.70
2019-03-12T18:18:57.673Z,34.98
2019-03-12T18:21:29.438Z,29.80
2019-03-12T18:24:01.222Z,32.25
2019-03-12T18:26:32.843Z,35.45
2019-03-12T18:29:04.425Z,40.40
2019-03-12T18:31:36.032Z,42.88
2019-03-12T18:34:07.732Z,48.83
2019-03-12T18:36:39.665Z,49.53
2019-03-12T18:39:11.445Z,52.17
2019-03-12T18:41:44.973Z,54.83
2019-03-12T18:44:16.637Z,43.95
2019-03-12T18:46:48.330Z,38.30
2019-03-12T18:49:19.884Z,35.68
2019-03-12T18:51:51.740Z,32.03
2019-03-12T18:54:23.505Z,33.83
2019-03-12T18:56:55.413Z,38.28
2019-03-12T18:59:27.123Z,36.65
2019-03-12T19:01:58.729Z,41.48
2019-03-12T19:04:30.607Z,41.75
2019-03-12T19:07:02.620Z,40.33
2019-03-12T19:09:34.274Z,27.27
2019-03-12T19:12:06.191Z,36.40
2019-03-12T19:14:37.638Z,38.58
2019-03-12T19:17:09.298Z,34.53
2019-03-12T19:19:41.032Z,32.75
2019-03-12T19:22:12.950Z,32.78
2019-03-12T19:24:44.773Z,30.95
2019-03-12T19:27:16.475Z,42.90
2019-03-12T19:29:49.087Z,47.65
2019-03-12T19:32:25.368Z,68.33
2019-03-12T19:34:56.922Z,77.37
2019-03-12T19:37:28.659Z,62.08
2019-03-12T19:40:00.415Z,51.08
2019-03-12T19:42:32.199Z,34.73
2019-03-12T19:45:03.911Z,38.60
2019-03-12T19:47:35.700Z,40.70
2019-03-12T19:50:09.203Z,37.90
2019-03-12T19:52:40.940Z,42.80
2019-03-12T19:55:14.821Z,44.95
2019-03-12T19:57:46.375Z,46.75
2019-03-12T20:00:19.512Z,41.55
2019-03-12T20:02:51.891Z,39.13
2019-03-12T20:05:23.609Z,36.75
2019-03-12T20:07:55.201Z,46.13
2019-03-12T20:11:03.349Z,66.13
2019-03-12T20:14:10.582Z,46.48
2019-03-12T20:17:17.791Z,40.03
2019-03-12T20:20:32.016Z,43.13
2019-03-12T20:24:08.584Z,33.78
2019-03-12T20:27:20.265Z,35.08
2019-03-12T20:30:29.057Z,35.73
2019-03-12T20:33:41.834Z,37.95
2019-03-12T20:36:54.985Z,39.03
2019-03-12T20:40:08.973Z,34.67
2019-03-12T20:43:29.887Z,30.80
2019-03-12T20:46:46.820Z,28.67
2019-03-12T20:50:02.558Z,29.57
2019-03-12T20:53:08.688Z,37.55
2019-03-12T20:56:22.785Z,30.82
2019-03-12T20:59:49.183Z,30.20
2019-03-12T21:03:05.143Z,33.28
2019-03-12T21:06:21.806Z,30.77
2019-03-12T21:09:35.901Z,28.83
2019-03-12T21:12:46.101Z,43.63
2019-03-12T21:16:04.541Z,41.57
2019-03-12T21:19:31.861Z,48.25
2019-03-12T21:22:38.771Z,57.33
2019-03-12T21:25:38.692Z,52.23
2019-03-12T21:28:46.278Z,69.10
2019-03-12T21:31:18.006Z,68.70
2019-03-12T21:33:49.928Z,72.82
2019-03-12T21:36:21.727Z,90.25
2019-03-12T21:38:53.570Z,99.07
2019-03-12T21:41:25.288Z,84.20
2019-03-12T21:43:56.919Z,81.35
2019-03-12T21:46:29.848Z,105.70
2019-03-12T21:49:01.125Z,102.17
2019-03-12T21:51:32.796Z,89.72
2019-03-12T21:54:04.666Z,73.50
2019-03-12T21:56:36.398Z,57.88
2019-03-12T21:59:08.052Z,72.55
2019-03-12T22:01:39.664Z,81.13
2019-03-12T22:04:11.223Z,102.22
2019-03-12T22:06:43.011Z,70.15
2019-03-12T22:09:14.473Z,67.35
2019-03-12T22:11:46.632Z,81.57
2019-03-12T22:14:18.126Z,62.53
2019-03-12T22:16:52.577Z,101.35
2019-03-12T22:19:25.333Z,78.60
2019-03-12T22:22:01.524Z,65.37
2019-03-12T22:24:33.366Z,44.90
2019-03-12T22:27:05.266Z,39.97
2019-03-12T22:29:37.988Z,45.48
2019-03-12T22:32:10.984Z,44.93
2019-03-12T22:34:42.624Z,50.63
2019-03-12T22:37:14.290Z,49.93
2019-03-12T22:39:46.121Z,57.73
2019-03-12T22:42:17.733Z,42.98
2019-03-12T22:44:49.554Z,53.93
2019-03-12T22:47:21.280Z,36.80
2019-03-12T22:49:52.721Z,44.90
2019-03-12T22:52:24.484Z,44.85
2019-03-12T22:54:56.041Z,44.38
2019-03-12T22:57:28.727Z,39.75
2019-03-12T23:00:18.541Z,45.05
2019-03-12T23:03:08.035Z,39.78
2019-03-12T23:05:57.545Z,38.88
2019-03-12T23:08:47.133Z,33.58
2019-03-12T23:11:20.367Z,39.48
2019-03-12T23:13:52.324Z,36.00
2019-03-12T23:16:24.599Z,33.92
2019-03-12T23:18:57.831Z,42.85
2019-03-12T23:21:29.519Z,43.33
2019-03-12T23:24:01.816Z,37.85
2019-03-12T23:26:33.830Z,40.25
2019-03-12T23:29:05.615Z,40.93
2019-03-12T23:31:37.657Z,39.53
2019-03-12T23:34:09.375Z,40.25
2019-03-12T23:36:41.145Z,41.48
2019-03-12T23:39:12.807Z,45.65
2019-03-12T23:41:44.643Z,47.73
2019-03-12T23:44:16.444Z,50.37
2019-03-12T23:46:48.191Z,39.70
2019-03-12T23:49:20.090Z,49.98
2019-03-12T23:51:51.939Z,42.50
2019-03-12T23:54:23.843Z,42.73
2019-03-12T23:56:55.816Z,45.78
2019-03-12T23:59:27.725Z,47.55
